Time;durP1;ratioP1;P1;durP2;ratioP2;P2;SDS_P1;SDS_P2;PMS_P1;PMS_P2;Temp;Humidity;BMP_temperature;BMP_pressure;BME280_temperature;BME280_humidity;BME280_pressure;Samples;Min_cycle;Max_cycle;Signal;HPM_P1;HPM_P2
2021/01/12 00:00:29;;;;;;;13.77;12.37;;;;;20.60;99868.00;;;;2070374;28;20277;-54
2021/01/12 00:01:29;;;;;;;15.95;12.45;;;;;20.60;99869.00;;;;2071318;28;20360;-54
2021/01/12 00:02:29;;;;;;;14.10;12.57;;;;;20.60;99864.00;;;;2070929;28;20271;-54
2021/01/12 00:03:30;;;;;;;12.57;11.27;;;;;20.60;99854.00;;;;2071201;28;20334;-54
2021/01/12 00:04:32;;;;;;;13.83;12.10;;;;;20.50;99864.00;;;;2071066;28;20222;-55
2021/01/12 00:05:32;;;;;;;13.65;11.95;;;;;20.60;99861.00;;;;2069685;28;20287;-57
2021/01/12 00:06:32;;;;;;;14.33;12.13;;;;;20.60;99853.00;;;;2071299;28;20283;-55
2021/01/12 00:07:33;;;;;;;13.80;11.20;;;;;20.60;99848.00;;;;2071059;28;20220;-55
2021/01/12 00:08:33;;;;;;;12.77;11.47;;;;;20.60;99842.00;;;;2071278;28;20294;-55
2021/01/12 00:09:33;;;;;;;12.13;10.93;;;;;20.50;99845.00;;;;2071164;28;20256;-55
2021/01/12 00:10:34;;;;;;;13.00;10.87;;;;;20.60;99839.00;;;;2070688;28;20206;-56
2021/01/12 00:11:34;;;;;;;12.90;11.30;;;;;20.50;99833.00;;;;2071421;28;20301;-55
2021/01/12 00:12:35;;;;;;;12.93;11.60;;;;;20.50;99838.00;;;;2070992;28;20281;-55
2021/01/12 00:13:35;;;;;;;12.53;10.93;;;;;20.40;99837.00;;;;2071193;28;20266;-54
2021/01/12 00:14:36;;;;;;;14.40;11.57;;;;;20.60;99832.00;;;;2070832;28;20218;-55
2021/01/12 00:15:36;;;;;;;11.60;10.47;;;;;20.50;99832.00;;;;2070695;28;20218;-54
2021/01/12 00:16:37;;;;;;;11.23;10.00;;;;;20.50;99832.00;;;;2071178;28;20301;-54
2021/01/12 00:17:37;;;;;;;12.83;10.70;;;;;20.50;99822.00;;;;2070929;28;20300;-55
2021/01/12 00:18:37;;;;;;;11.53;10.33;;;;;20.50;99826.00;;;;2071137;28;20218;-54
2021/01/12 00:19:38;;;;;;;11.10;10.00;;;;;20.50;99823.00;;;;2070407;28;20218;-55
2021/01/12 00:20:38;;;;;;;11.10;10.00;;;;;20.50;99817.00;;;;2071041;28;20424;-54
2021/01/12 00:21:38;;;;;;;11.60;9.90;;;;;20.50;99830.00;;;;2071243;28;20232;-54
2021/01/12 00:22:39;;;;;;;11.63;9.97;;;;;20.50;99819.00;;;;2071131;28;20217;-54
2021/01/12 00:23:39;;;;;;;10.20;9.20;;;;;20.50;99810.00;;;;2071315;28;20217;-54
2021/01/12 00:24:47;;;;;;;10.30;9.20;;;;;20.50;99824.00;;;;2070596;28;20782;-54
2021/01/12 00:25:47;;;;;;;10.40;9.30;;;;;20.50;99831.00;;;;2070919;28;20305;-54
2021/01/12 00:26:48;;;;;;;10.53;9.43;;;;;20.50;99817.00;;;;2071054;28;20233;-53
2021/01/12 00:27:48;;;;;;;11.93;9.97;;;;;20.50;99827.00;;;;2070741;28;21054;-53
2021/01/12 00:28:48;;;;;;;10.67;9.30;;;;;20.50;99811.00;;;;2071107;28;20225;-54
2021/01/12 00:29:50;;;;;;;10.40;9.20;;;;;20.50;99817.00;;;;2070656;28;20221;-54
2021/01/12 00:30:50;;;;;;;11.63;10.07;;;;;20.50;99808.00;;;;2070116;28;20246;-54
2021/01/12 00:31:50;;;;;;;10.40;9.17;;;;;20.50;99808.00;;;;2070355;28;20217;-53
2021/01/12 00:32:51;;;;;;;11.83;9.50;;;;;20.50;99803.00;;;;2070533;28;20222;-54
2021/01/12 00:33:51;;;;;;;11.57;9.63;;;;;20.50;99808.00;;;;2069830;28;20356;-54
2021/01/12 00:34:52;;;;;;;9.83;8.83;;;;;20.50;99810.00;;;;2069372;28;20217;-53
2021/01/12 00:35:52;;;;;;;12.05;8.88;;;;;20.50;99802.00;;;;2070375;28;20267;-54
2021/01/12 00:36:53;;;;;;;10.13;8.83;;;;;20.50;99796.00;;;;2070029;28;20691;-54
2021/01/12 00:37:53;;;;;;;10.30;8.90;;;;;20.50;99787.00;;;;2070260;28;20897;-53
2021/01/12 00:38:55;;;;;;;10.30;8.47;;;;;20.40;99791.00;;;;2070357;28;21152;-54
2021/01/12 00:39:55;;;;;;;10.48;8.82;;;;;20.50;99805.00;;;;2069547;28;20250;-54
2021/01/12 00:40:56;;;;;;;10.00;8.23;;;;;20.50;99788.00;;;;2069708;28;20249;-54
2021/01/12 00:41:57;;;;;;;10.20;9.10;;;;;20.40;99783.00;;;;2071039;28;20213;-54
2021/01/12 00:42:57;;;;;;;9.50;8.32;;;;;20.40;99783.00;;;;2070799;28;20218;-54
2021/01/12 00:43:57;;;;;;;10.37;8.37;;;;;20.50;99780.00;;;;2071241;28;20229;-54
2021/01/12 00:44:58;;;;;;;8.83;7.80;;;;;20.40;99774.00;;;;2070580;28;20236;-54
2021/01/12 00:45:58;;;;;;;10.70;8.10;;;;;20.40;99784.00;;;;2071332;28;20249;-54
2021/01/12 00:46:58;;;;;;;9.73;7.80;;;;;20.40;99782.00;;;;2070895;28;20222;-54
2021/01/12 00:47:59;;;;;;;8.50;7.70;;;;;20.40;99778.00;;;;2071017;28;20214;-54
2021/01/12 00:48:59;;;;;;;9.23;7.70;;;;;20.40;99780.00;;;;2071070;28;20295;-54
2021/01/12 00:49:59;;;;;;;8.33;7.40;;;;;20.40;99785.00;;;;2070457;28;20222;-54
2021/01/12 00:51:00;;;;;;;11.10;8.17;;;;;20.40;99774.00;;;;2070654;28;20221;-54
2021/01/12 00:52:00;;;;;;;8.50;7.70;;;;;20.40;99771.00;;;;2071421;28;20226;-54
2021/01/12 00:53:01;;;;;;;8.27;7.30;;;;;20.30;99782.00;;;;2071212;28;20262;-54
2021/01/12 00:54:02;;;;;;;9.13;7.60;;;;;20.30;99765.00;;;;2071563;28;20272;-54
2021/01/12 00:55:03;;;;;;;8.45;7.60;;;;;20.30;99765.00;;;;2070641;28;20263;-54
2021/01/12 00:56:13;;;;;;;9.70;7.73;;;;;20.30;99769.00;;;;2069177;28;20699;-54
2021/01/12 00:57:13;;;;;;;8.70;7.80;;;;;20.30;99758.00;;;;2071000;28;20949;-54
2021/01/12 00:58:14;;;;;;;9.23;7.93;;;;;20.30;99764.00;;;;2071036;28;20221;-54
2021/01/12 00:59:14;;;;;;;10.10;7.77;;;;;20.30;99756.00;;;;2070631;28;20264;-54
2021/01/12 01:00:15;;;;;;;8.40;7.60;;;;;20.30;99758.00;;;;2071169;28;20761;-54
2021/01/12 01:01:15;;;;;;;8.90;8.10;;;;;20.30;99767.00;;;;2071140;28;20220;-54
2021/01/12 01:02:15;;;;;;;8.23;7.47;;;;;20.20;99753.00;;;;2071259;28;20215;-54
2021/01/12 01:03:16;;;;;;;9.83;8.00;;;;;20.20;99764.00;;;;2071164;28;20218;-54
2021/01/12 01:04:16;;;;;;;7.93;7.17;;;;;20.20;99757.00;;;;2071271;28;20353;-54
2021/01/12 01:05:18;;;;;;;8.30;7.27;;;;;20.20;99746.00;;;;2070582;28;20213;-54
2021/01/12 01:06:19;;;;;;;8.18;6.63;;;;;20.20;99745.00;;;;2071264;28;20217;-54
2021/01/12 01:07:19;;;;;;;9.52;6.93;;;;;20.20;99739.00;;;;2071092;28;20237;-54
2021/01/12 01:08:20;;;;;;;8.00;7.20;;;;;20.20;99757.00;;;;2071210;28;20280;-54
2021/01/12 01:09:20;;;;;;;7.80;7.10;;;;;20.20;99743.00;;;;2070990;28;20218;-54
2021/01/12 01:10:21;;;;;;;8.10;7.30;;;;;20.20;99747.00;;;;2071088;28;20230;-54
2021/01/12 01:11:21;;;;;;;8.67;7.20;;;;;20.20;99737.00;;;;2070757;28;20228;-54
2021/01/12 01:12:21;;;;;;;7.77;6.97;;;;;20.20;99740.00;;;;2070458;28;20225;-54
2021/01/12 01:13:23;;;;;;;7.47;6.77;;;;;20.10;99730.00;;;;2070623;28;20695;-54
2021/01/12 01:14:23;;;;;;;7.78;7.03;;;;;20.20;99733.00;;;;2071173;28;20575;-54
2021/01/12 01:15:24;;;;;;;8.03;7.07;;;;;20.20;99723.00;;;;2070349;28;20217;-54
2021/01/12 01:16:33;;;;;;;7.90;6.83;;;;;20.10;99716.00;;;;2071298;28;20709;-54
2021/01/12 01:17:34;;;;;;;7.00;6.28;;;;;20.10;99733.00;;;;2070821;28;20229;-54
2021/01/12 01:18:35;;;;;;;6.80;6.20;;;;;20.10;99726.00;;;;2071039;28;20236;-54
2021/01/12 01:19:35;;;;;;;7.20;6.50;;;;;20.10;99726.00;;;;2070979;28;20448;-54
2021/01/12 01:20:35;;;;;;;6.73;6.13;;;;;20.10;99735.00;;;;2071022;28;20301;-54
2021/01/12 01:21:36;;;;;;;6.30;5.70;;;;;20.10;99721.00;;;;2071064;28;20678;-54
2021/01/12 01:22:36;;;;;;;6.80;6.20;;;;;20.10;99728.00;;;;2071216;28;20222;-54
2021/01/12 01:23:36;;;;;;;7.33;6.63;;;;;20.10;99718.00;;;;2071061;28;20289;-54
2021/01/12 01:24:37;;;;;;;6.57;5.97;;;;;20.10;99717.00;;;;2070051;28;20224;-54
2021/01/12 01:25:37;;;;;;;6.97;6.30;;;;;20.10;99714.00;;;;2071053;28;20590;-54
2021/01/12 01:26:38;;;;;;;6.60;6.00;;;;;20.10;99706.00;;;;2070975;28;20296;-54
2021/01/12 01:27:38;;;;;;;7.43;6.73;;;;;20.10;99702.00;;;;2070648;28;20218;-54
2021/01/12 01:28:38;;;;;;;5.90;5.40;;;;;20.00;99712.00;;;;2071090;28;20222;-54
2021/01/12 01:29:39;;;;;;;7.20;6.53;;;;;20.00;99721.00;;;;2070976;28;20670;-54
2021/01/12 01:30:39;;;;;;;6.57;5.77;;;;;20.10;99707.00;;;;2070958;28;20873;-54
2021/01/12 01:31:39;;;;;;;6.27;5.67;;;;;20.10;99713.00;;;;2070967;28;20587;-54
2021/01/12 01:32:40;;;;;;;6.77;6.17;;;;;20.10;99704.00;;;;2070894;28;20219;-54
2021/01/12 01:33:40;;;;;;;8.60;5.63;;;;;20.10;99702.00;;;;2070679;28;21558;-54
2021/01/12 01:34:40;;;;;;;6.50;5.90;;;;;20.10;99708.00;;;;2069851;28;20216;-58
2021/01/12 01:35:41;;;;;;;6.97;6.27;;;;;20.00;99707.00;;;;2070562;28;20792;-55
2021/01/12 01:36:42;;;;;;;6.80;6.20;;;;;20.00;99705.00;;;;2070442;28;20221;-55
2021/01/12 01:37:42;;;;;;;6.63;6.00;;;;;20.00;99698.00;;;;2070730;28;20774;-55
2021/01/12 01:38:42;;;;;;;6.60;6.07;;;;;20.00;99699.00;;;;2071019;28;20722;-54
2021/01/12 01:39:43;;;;;;;8.00;5.87;;;;;20.00;99700.00;;;;2070720;28;20598;-54
2021/01/12 01:40:43;;;;;;;7.57;6.47;;;;;20.10;99696.00;;;;2070952;28;20225;-55
2021/01/12 01:41:43;;;;;;;6.50;5.90;;;;;20.00;99708.00;;;;2070844;28;20234;-54
2021/01/12 01:42:44;;;;;;;5.60;5.10;;;;;20.00;99701.00;;;;2070701;28;20220;-54
2021/01/12 01:43:44;;;;;;;6.90;6.00;;;;;20.00;99688.00;;;;2070796;28;20211;-54
2021/01/12 01:44:44;;;;;;;6.40;5.80;;;;;20.00;99691.00;;;;2069899;28;20246;-54
2021/01/12 01:45:45;;;;;;;6.23;5.63;;;;;20.00;99683.00;;;;2070895;28;20687;-55
2021/01/12 01:46:45;;;;;;;6.27;5.67;;;;;20.00;99677.00;;;;2070723;28;20709;-54
2021/01/12 01:47:46;;;;;;;6.90;6.30;;;;;20.00;99684.00;;;;2070686;28;20717;-54
2021/01/12 01:48:49;;;;;;;5.53;5.03;;;;;20.00;99686.00;;;;2070966;28;20686;-54
2021/01/12 01:49:50;;;;;;;6.13;5.53;;;;;20.00;99674.00;;;;2070030;28;20209;-54
2021/01/12 01:50:50;;;;;;;5.70;5.20;;;;;19.90;99670.00;;;;2070048;28;20217;-54
2021/01/12 01:51:51;;;;;;;5.93;5.43;;;;;19.90;99681.00;;;;2070901;28;20448;-54
2021/01/12 01:52:55;;;;;;;5.53;5.03;;;;;19.90;99674.00;;;;2070221;28;20214;-54
2021/01/12 01:53:55;;;;;;;5.97;5.47;;;;;19.90;99671.00;;;;2070268;28;20224;-54
2021/01/12 01:54:56;;;;;;;5.17;4.67;;;;;19.90;99684.00;;;;2069072;28;20217;-54
2021/01/12 01:55:58;;;;;;;5.38;4.97;;;;;19.90;99681.00;;;;2053978;28;20254;-54
2021/01/12 01:56:59;;;;;;;5.30;4.90;;;;;19.90;99666.00;;;;2062234;28;20210;-54
2021/01/12 01:57:59;;;;;;;5.75;5.05;;;;;19.90;99673.00;;;;2069927;28;20340;-54
2021/01/12 01:59:00;;;;;;;5.07;4.67;;;;;19.90;99668.00;;;;2070186;28;20244;-54
2021/01/12 02:00:02;;;;;;;4.83;4.40;;;;;19.90;99673.00;;;;2070653;28;20229;-54
2021/01/12 02:01:02;;;;;;;4.80;4.40;;;;;19.90;99668.00;;;;2070627;28;20225;-54
2021/01/12 02:02:05;;;;;;;5.23;4.73;;;;;19.90;99669.00;;;;2066769;28;20236;-54
2021/01/12 02:03:22;;;;;;;5.07;4.68;;;;;19.90;99665.00;;;;2070121;28;20232;-54
2021/01/12 02:04:31;;;;;;;5.25;4.85;;;;;19.90;99661.00;;;;2070250;28;20218;-54
2021/01/12 02:05:32;;;;;;;5.10;4.65;;;;;19.90;99643.00;;;;2061941;28;20731;-54
2021/01/12 02:06:34;;;;;;;5.40;4.90;;;;;19.90;99655.00;;;;2054496;28;20218;-54
2021/01/12 02:07:34;;;;;;;5.03;4.63;;;;;19.90;99638.00;;;;2069455;28;20228;-54
2021/01/12 02:08:44;;;;;;;5.20;4.70;;;;;19.90;99644.00;;;;2070132;28;20312;-54
2021/01/12 02:09:47;;;;;;;5.00;4.60;;;;;19.80;99649.00;;;;2070081;28;20611;-55
2021/01/12 02:10:48;;;;;;;4.65;4.25;;;;;19.80;99636.00;;;;2052167;28;20309;-55
2021/01/12 02:11:53;;;;;;;4.17;3.87;;;;;19.90;99639.00;;;;2053131;28;20249;-54
2021/01/12 02:12:58;;;;;;;5.30;4.55;;;;;19.80;99641.00;;;;2058947;28;20720;-54
2021/01/12 02:14:02;;;;;;;4.30;4.00;;;;;19.80;99638.00;;;;2069307;28;20221;-54
2021/01/12 02:15:02;;;;;;;4.43;4.03;;;;;19.90;99643.00;;;;2069398;28;20272;-54
2021/01/12 02:16:03;;;;;;;5.13;4.73;;;;;19.80;99633.00;;;;2070676;28;20213;-54
2021/01/12 02:17:03;;;;;;;5.33;4.90;;;;;19.80;99638.00;;;;2070039;28;20631;-54
2021/01/12 02:18:04;;;;;;;4.77;4.20;;;;;19.80;99627.00;;;;2061671;28;20715;-54
2021/01/12 02:19:04;;;;;;;4.37;3.97;;;;;19.80;99628.00;;;;2053679;28;20249;-54
2021/01/12 02:20:05;;;;;;;4.60;4.20;;;;;19.80;99625.00;;;;2053211;28;20260;-54
2021/01/12 02:21:06;;;;;;;4.20;3.80;;;;;19.80;99635.00;;;;2070179;28;20217;-54
2021/01/12 02:22:06;;;;;;;5.00;3.93;;;;;19.80;99626.00;;;;2070052;28;20599;-54
2021/01/12 02:23:16;;;;;;;4.27;3.90;;;;;19.80;99628.00;;;;2069625;28;20463;-54
2021/01/12 02:24:16;;;;;;;4.25;3.88;;;;;19.80;99618.00;;;;2070021;28;20213;-56
2021/01/12 02:25:17;;;;;;;4.33;3.93;;;;;19.80;99626.00;;;;2068221;28;20304;-55
2021/01/12 02:26:17;;;;;;;4.30;3.95;;;;;19.80;99627.00;;;;2069853;28;20284;-54
2021/01/12 02:27:22;;;;;;;4.10;3.70;;;;;19.80;99613.00;;;;2070561;28;20213;-55
2021/01/12 02:28:22;;;;;;;4.28;3.75;;;;;19.80;99619.00;;;;2070732;28;20214;-54
2021/01/12 02:29:22;;;;;;;4.60;4.20;;;;;19.80;99615.00;;;;2070265;28;20709;-54
2021/01/12 02:30:23;;;;;;;4.03;3.63;;;;;19.70;99615.00;;;;2070572;28;20654;-54
2021/01/12 02:31:23;;;;;;;4.93;4.40;;;;;19.80;99614.00;;;;2070614;28;20283;-54
2021/01/12 02:32:23;;;;;;;4.57;4.17;;;;;19.70;99607.00;;;;2070372;28;20213;-54
2021/01/12 02:33:24;;;;;;;3.97;3.67;;;;;19.70;99608.00;;;;2069735;28;20231;-54
2021/01/12 02:34:25;;;;;;;4.50;4.10;;;;;19.70;99581.00;;;;2070478;28;20247;-54
2021/01/12 02:35:26;;;;;;;3.60;3.30;;;;;19.80;99600.00;;;;2061106;28;20824;-54
2021/01/12 02:36:26;;;;;;;4.03;3.72;;;;;19.70;99594.00;;;;2062066;28;20542;-54
2021/01/12 02:37:27;;;;;;;4.30;3.90;;;;;19.70;99596.00;;;;2061594;28;20221;-54
2021/01/12 02:38:27;;;;;;;3.90;3.50;;;;;19.70;99581.00;;;;2061948;28;20215;-54
2021/01/12 02:39:27;;;;;;;4.27;3.87;;;;;19.70;99588.00;;;;2069892;28;20401;-54
2021/01/12 02:40:28;;;;;;;3.70;3.40;;;;;19.70;99592.00;;;;2069678;28;20221;-54
2021/01/12 02:41:29;;;;;;;3.93;3.63;;;;;19.70;99586.00;;;;2069616;28;20222;-54
2021/01/12 02:42:30;;;;;;;4.35;3.80;;;;;19.70;99578.00;;;;2070376;28;20267;-54
2021/01/12 02:43:30;;;;;;;3.80;3.50;;;;;19.70;99581.00;;;;2067383;28;20551;-54
2021/01/12 02:44:30;;;;;;;3.63;3.33;;;;;19.70;99581.00;;;;2069028;28;20627;-54
2021/01/12 02:45:31;;;;;;;4.27;3.83;;;;;19.70;99569.00;;;;2070125;28;20217;-54
2021/01/12 02:46:31;;;;;;;3.50;3.30;;;;;19.70;99567.00;;;;2070496;28;20229;-54
2021/01/12 02:47:32;;;;;;;3.83;3.47;;;;;19.70;99565.00;;;;2070072;28;20272;-54
2021/01/12 02:48:32;;;;;;;3.70;3.40;;;;;19.70;99572.00;;;;2070444;28;20220;-54
2021/01/12 02:49:32;;;;;;;3.80;3.50;;;;;19.70;99571.00;;;;2070497;28;20213;-54
2021/01/12 02:50:33;;;;;;;4.90;3.67;;;;;19.70;99563.00;;;;2070048;28;20624;-54
2021/01/12 02:51:36;;;;;;;3.90;3.50;;;;;19.70;99561.00;;;;2070258;28;20221;-54
2021/01/12 02:52:36;;;;;;;3.55;3.25;;;;;19.70;99564.00;;;;2070024;28;20209;-54
2021/01/12 02:53:37;;;;;;;3.80;3.50;;;;;19.70;99550.00;;;;2070296;28;20214;-54
2021/01/12 02:54:37;;;;;;;3.87;3.57;;;;;19.70;99551.00;;;;2069502;28;20249;-54
2021/01/12 02:55:37;;;;;;;3.67;3.37;;;;;19.70;99553.00;;;;2070335;28;20209;-54
2021/01/12 02:56:38;;;;;;;3.90;3.60;;;;;19.70;99542.00;;;;2070530;28;20264;-54
2021/01/12 02:57:38;;;;;;;5.50;3.27;;;;;19.60;99545.00;;;;2069987;28;20256;-54
2021/01/12 02:58:38;;;;;;;3.20;2.90;;;;;19.60;99536.00;;;;2070447;28;20214;-54
2021/01/12 02:59:39;;;;;;;3.63;3.33;;;;;19.70;99539.00;;;;2069292;28;20296;-54
2021/01/12 03:00:39;;;;;;;3.43;3.23;;;;;19.60;99540.00;;;;2070115;28;20218;-54
2021/01/12 03:01:39;;;;;;;3.40;3.10;;;;;19.60;99532.00;;;;2070254;28;20287;-54
2021/01/12 03:02:40;;;;;;;3.70;3.40;;;;;19.60;99531.00;;;;2070180;28;20226;-54
2021/01/12 03:03:40;;;;;;;3.60;3.30;;;;;19.60;99531.00;;;;2070271;28;20240;-54
2021/01/12 03:04:40;;;;;;;3.57;2.80;;;;;19.60;99529.00;;;;2069768;28;20233;-54
2021/01/12 03:05:41;;;;;;;2.90;2.70;;;;;19.60;99533.00;;;;2070083;28;20220;-54
2021/01/12 03:06:41;;;;;;;3.57;3.27;;;;;19.60;99528.00;;;;2070133;28;20861;-54
2021/01/12 03:07:41;;;;;;;3.50;3.10;;;;;19.60;99525.00;;;;2070006;28;20244;-54
2021/01/12 03:08:42;;;;;;;3.13;2.80;;;;;19.60;99524.00;;;;2069662;28;20228;-54
2021/01/12 03:09:42;;;;;;;3.10;2.90;;;;;19.60;99517.00;;;;2070341;28;20220;-54
2021/01/12 03:10:42;;;;;;;3.50;3.20;;;;;19.60;99520.00;;;;2062110;28;20226;-54
2021/01/12 03:11:43;;;;;;;3.47;3.17;;;;;19.60;99527.00;;;;2070342;28;20248;-54
2021/01/12 03:12:43;;;;;;;3.30;3.00;;;;;19.50;99517.00;;;;2070372;28;20300;-54
2021/01/12 03:13:43;;;;;;;3.27;2.97;;;;;19.60;99510.00;;;;2070025;28;20224;-54
2021/01/12 03:14:44;;;;;;;2.90;2.70;;;;;19.60;99507.00;;;;2069582;28;20218;-54
2021/01/12 03:15:44;;;;;;;3.43;3.13;;;;;19.60;99510.00;;;;2069969;28;21098;-54
2021/01/12 03:16:45;;;;;;;4.03;3.73;;;;;19.50;99505.00;;;;2070309;28;20754;-54
2021/01/12 03:17:45;;;;;;;3.07;2.87;;;;;19.50;99500.00;;;;2070150;28;20225;-54
2021/01/12 03:18:45;;;;;;;3.03;2.80;;;;;19.50;99509.00;;;;2070390;28;20214;-54
2021/01/12 03:19:46;;;;;;;3.17;2.87;;;;;19.60;99494.00;;;;2070279;28;20267;-54
2021/01/12 03:20:46;;;;;;;3.00;2.70;;;;;19.50;99496.00;;;;2070171;28;20208;-54
2021/01/12 03:21:46;;;;;;;3.03;2.73;;;;;19.50;99495.00;;;;2070206;28;20221;-54
2021/01/12 03:22:47;;;;;;;3.07;2.87;;;;;19.50;99492.00;;;;2070485;28;20213;-54
2021/01/12 03:23:47;;;;;;;2.90;2.70;;;;;19.50;99493.00;;;;2070201;28;20746;-54
2021/01/12 03:24:47;;;;;;;3.17;2.87;;;;;19.50;99502.00;;;;2068734;28;20710;-54
2021/01/12 03:25:48;;;;;;;3.13;2.93;;;;;19.50;99499.00;;;;2070036;28;20981;-54
2021/01/12 03:26:48;;;;;;;3.40;3.20;;;;;19.50;99501.00;;;;2069709;28;20220;-54
2021/01/12 03:27:49;;;;;;;3.10;2.90;;;;;19.50;99445.00;;;;2069857;28;20357;-54
2021/01/12 03:28:49;;;;;;;3.07;2.87;;;;;19.50;99483.00;;;;2070234;28;20218;-54
2021/01/12 03:29:49;;;;;;;2.90;2.50;;;;;19.50;99487.00;;;;2069551;28;20233;-54
2021/01/12 03:30:50;;;;;;;3.13;2.93;;;;;19.50;99482.00;;;;2070209;28;20228;-54
2021/01/12 03:31:50;;;;;;;3.07;2.87;;;;;19.50;99478.00;;;;2070225;28;20305;-54
2021/01/12 03:32:52;;;;;;;3.00;2.80;;;;;19.50;99472.00;;;;2070221;28;20224;-54
2021/01/12 03:33:53;;;;;;;3.00;2.80;;;;;19.50;99485.00;;;;2070149;28;20224;-54
2021/01/12 03:34:53;;;;;;;2.70;2.50;;;;;19.50;99492.00;;;;2069881;28;20693;-54
2021/01/12 03:35:53;;;;;;;3.00;2.80;;;;;19.50;99472.00;;;;2071142;28;20262;-54
2021/01/12 03:36:54;;;;;;;2.50;2.30;;;;;19.50;99475.00;;;;2071149;28;20240;-57
2021/01/12 03:37:54;;;;;;;2.77;2.57;;;;;19.50;99479.00;;;;2071644;28;20224;-56
2021/01/12 03:38:54;;;;;;;2.43;2.30;;;;;19.50;99469.00;;;;2071788;28;20609;-55
2021/01/12 03:39:55;;;;;;;2.83;2.63;;;;;19.50;99474.00;;;;2071742;28;20227;-55
2021/01/12 03:40:55;;;;;;;2.47;2.27;;;;;19.50;99472.00;;;;2071454;28;20214;-54
2021/01/12 03:41:55;;;;;;;2.37;2.17;;;;;19.50;99480.00;;;;2071772;28;20214;-55
2021/01/12 03:42:56;;;;;;;2.43;2.20;;;;;19.50;99452.00;;;;2070572;28;20320;-55
2021/01/12 03:43:56;;;;;;;2.30;2.20;;;;;19.50;99465.00;;;;2071540;28;20216;-54
2021/01/12 03:44:56;;;;;;;2.67;2.47;;;;;19.50;99458.00;;;;2071162;28;20220;-55
2021/01/12 03:45:57;;;;;;;2.67;2.47;;;;;19.50;99464.00;;;;2071802;28;20224;-55
2021/01/12 03:46:57;;;;;;;2.83;2.63;;;;;19.40;99469.00;;;;2071657;28;20224;-54
2021/01/12 03:47:57;;;;;;;2.10;2.00;;;;;19.40;99468.00;;;;2071593;28;20218;-54
2021/01/12 03:48:58;;;;;;;2.67;2.47;;;;;19.50;99461.00;;;;2071865;28;20256;-55
2021/01/12 03:49:58;;;;;;;2.40;2.20;;;;;19.50;99457.00;;;;2071671;28;21047;-54
2021/01/12 03:50:59;;;;;;;2.47;2.27;;;;;19.50;99468.00;;;;2070882;28;20300;-54
2021/01/12 03:51:59;;;;;;;2.20;2.10;;;;;19.50;99476.00;;;;2071052;28;20217;-54
2021/01/12 03:52:59;;;;;;;2.37;2.20;;;;;19.50;99467.00;;;;2071624;28;20213;-54
2021/01/12 03:54:00;;;;;;;2.00;1.90;;;;;19.50;99469.00;;;;2071278;28;20216;-54
2021/01/12 03:55:00;;;;;;;2.53;2.33;;;;;19.40;99461.00;;;;2070985;28;20563;-54
2021/01/12 03:56:00;;;;;;;1.93;1.73;;;;;19.40;99457.00;;;;2071604;28;20229;-54
2021/01/12 03:57:01;;;;;;;2.10;2.00;;;;;19.40;99457.00;;;;2071423;28;20224;-54
2021/01/12 03:58:01;;;;;;;2.23;2.13;;;;;19.40;99443.00;;;;2071497;28;20294;-54
2021/01/12 03:59:01;;;;;;;2.67;2.47;;;;;19.40;99461.00;;;;2071441;28;20230;-54
2021/01/12 04:00:04;;;;;;;2.30;2.10;;;;;19.40;99447.00;;;;2071459;28;20702;-54
2021/01/12 04:01:04;;;;;;;4.47;2.20;;;;;19.40;99447.00;;;;2071143;28;20685;-54
2021/01/12 04:02:05;;;;;;;2.03;1.93;;;;;19.40;99438.00;;;;2071753;28;20233;-54
2021/01/12 04:03:05;;;;;;;2.03;1.93;;;;;19.40;99435.00;;;;2071791;28;20214;-54
2021/01/12 04:04:05;;;;;;;1.80;1.70;;;;;19.40;99435.00;;;;2071506;28;20303;-54
2021/01/12 04:05:06;;;;;;;2.40;2.20;;;;;19.40;99416.00;;;;2060684;28;20349;-54
2021/01/12 04:06:15;;;;;;;2.28;2.00;;;;;19.40;99435.00;;;;2062644;28;20769;-54
2021/01/12 04:07:15;;;;;;;2.55;2.35;;;;;19.40;99430.00;;;;2071236;28;20212;-54
2021/01/12 04:08:15;;;;;;;2.17;1.57;;;;;19.40;99421.00;;;;2071442;28;20585;-54
2021/01/12 04:09:16;;;;;;;1.97;1.87;;;;;19.40;99436.00;;;;2071668;28;20217;-54
2021/01/12 04:10:16;;;;;;;1.70;1.60;;;;;19.40;99437.00;;;;2071390;28;23012;-54
2021/01/12 04:11:18;;;;;;;1.70;1.60;;;;;19.40;99442.00;;;;2071192;28;21270;-54
2021/01/12 04:12:18;;;;;;;2.00;1.70;;;;;19.40;99428.00;;;;2071206;28;20301;-54
2021/01/12 04:13:18;;;;;;;2.13;2.00;;;;;19.40;99435.00;;;;2071651;28;20225;-54
2021/01/12 04:14:19;;;;;;;1.87;1.77;;;;;19.40;99409.00;;;;2071363;28;20260;-54
2021/01/12 04:15:19;;;;;;;2.03;1.93;;;;;19.40;99417.00;;;;2071004;28;20694;-54
2021/01/12 04:16:23;;;;;;;1.90;1.53;;;;;19.40;99421.00;;;;2071408;28;20645;-54
2021/01/12 04:17:23;;;;;;;1.77;1.67;;;;;19.40;99418.00;;;;2071446;28;20295;-54
2021/01/12 04:18:24;;;;;;;2.00;1.90;;;;;19.40;99404.00;;;;2071461;28;20287;-54
2021/01/12 04:19:24;;;;;;;1.90;1.80;;;;;19.40;99418.00;;;;2071528;28;20221;-54
2021/01/12 04:20:24;;;;;;;2.03;1.90;;;;;19.40;99422.00;;;;2071297;28;20235;-54
2021/01/12 04:21:25;;;;;;;1.70;1.60;;;;;19.40;99392.00;;;;2071368;28;20232;-54
2021/01/12 04:22:25;;;;;;;1.93;1.80;;;;;19.40;99406.00;;;;2071494;28;20264;-54
2021/01/12 04:23:25;;;;;;;1.90;1.80;;;;;19.30;99415.00;;;;2071542;28;20218;-54
2021/01/12 04:24:26;;;;;;;2.20;2.00;;;;;19.30;99405.00;;;;2071337;28;20232;-54
2021/01/12 04:25:26;;;;;;;1.67;1.57;;;;;19.30;99399.00;;;;2070743;28;20337;-54
2021/01/12 04:26:27;;;;;;;1.60;1.50;;;;;19.30;99411.00;;;;2071027;28;20217;-54
2021/01/12 04:27:27;;;;;;;1.63;1.53;;;;;19.30;99404.00;;;;2071274;28;20217;-54
2021/01/12 04:28:27;;;;;;;1.30;1.20;;;;;19.30;99418.00;;;;2071391;28;20309;-54
2021/01/12 04:29:28;;;;;;;1.80;1.70;;;;;19.30;99420.00;;;;2071508;28;20225;-54
2021/01/12 04:30:28;;;;;;;1.60;1.50;;;;;19.30;99369.00;;;;2071002;28;20238;-54
2021/01/12 04:31:29;;;;;;;1.70;1.60;;;;;19.30;99406.00;;;;2071186;28;20271;-54
2021/01/12 04:32:30;;;;;;;1.33;1.23;;;;;19.30;99405.00;;;;2071102;28;20227;-56
2021/01/12 04:33:30;;;;;;;1.70;1.60;;;;;19.30;99403.00;;;;2071466;28;20209;-55
2021/01/12 04:34:30;;;;;;;1.90;1.80;;;;;19.30;99408.00;;;;2071041;28;20258;-55
2021/01/12 04:35:31;;;;;;;1.60;1.50;;;;;19.30;99400.00;;;;2071114;28;20214;-54
2021/01/12 04:36:31;;;;;;;1.67;1.57;;;;;19.30;99415.00;;;;2071031;28;20312;-54
2021/01/12 04:37:31;;;;;;;1.80;1.30;;;;;19.30;99400.00;;;;2070688;28;20220;-55
2021/01/12 04:38:32;;;;;;;1.40;1.30;;;;;19.30;99397.00;;;;2071124;28;20225;-54
2021/01/12 04:39:32;;;;;;;1.93;1.83;;;;;19.30;99394.00;;;;2071334;28;20300;-54
2021/01/12 04:40:32;;;;;;;1.63;1.37;;;;;19.30;99360.00;;;;2071022;28;20239;-54
2021/01/12 04:41:33;;;;;;;1.40;1.30;;;;;19.30;99390.00;;;;2071230;28;20214;-54
2021/01/12 04:42:33;;;;;;;1.73;1.53;;;;;19.30;99386.00;;;;2071438;28;20590;-54
2021/01/12 04:43:34;;;;;;;1.20;1.10;;;;;19.30;99391.00;;;;2071390;28;20404;-54
2021/01/12 04:44:34;;;;;;;1.40;1.30;;;;;19.30;99379.00;;;;2070740;28;20273;-54
2021/01/12 04:45:34;;;;;;;1.83;1.73;;;;;19.30;99390.00;;;;2071315;28;20633;-54
2021/01/12 04:46:34;;;;;;;5.00;1.40;;;;;19.30;99375.00;;;;2070448;28;20377;-54
2021/01/12 04:47:35;;;;;;;1.47;1.37;;;;;19.30;99381.00;;;;2070696;28;20227;-54
2021/01/12 04:48:35;;;;;;;1.50;1.40;;;;;19.30;99380.00;;;;2071230;28;20216;-54
2021/01/12 04:49:35;;;;;;;1.83;1.30;;;;;19.30;99381.00;;;;2071416;28;20220;-54
2021/01/12 04:50:36;;;;;;;1.23;1.13;;;;;19.30;99370.00;;;;2070119;28;20228;-54
2021/01/12 04:51:36;;;;;;;1.50;1.40;;;;;19.30;99374.00;;;;2067325;28;20214;-54
2021/01/12 04:52:50;;;;;;;1.23;1.13;;;;;19.30;99386.00;;;;2070163;28;20777;-54
2021/01/12 04:53:51;;;;;;;1.58;1.48;;;;;19.30;99379.00;;;;2070802;28;20284;-54
2021/01/12 04:54:53;;;;;;;1.00;1.00;;;;;19.20;99327.00;;;;2070575;28;20222;-54
2021/01/12 04:55:55;;;;;;;1.40;1.30;;;;;19.30;99368.00;;;;2071352;28;20218;-54
2021/01/12 04:56:55;;;;;;;1.85;1.20;;;;;19.30;99365.00;;;;2070793;28;20863;-54
2021/01/12 04:57:56;;;;;;;1.50;1.40;;;;;19.30;99360.00;;;;2071057;28;20317;-54
2021/01/12 04:58:56;;;;;;;0.83;0.83;;;;;19.30;99362.00;;;;2071142;28;20233;-54
2021/01/12 04:59:56;;;;;;;1.83;1.73;;;;;19.20;99361.00;;;;2071140;28;20221;-54
2021/01/12 05:00:57;;;;;;;1.30;1.20;;;;;19.20;99365.00;;;;2071233;28;20225;-54
2021/01/12 05:01:58;;;;;;;1.20;1.10;;;;;19.20;99351.00;;;;2071178;28;20245;-54
2021/01/12 05:03:04;;;;;;;1.30;1.20;;;;;19.20;99349.00;;;;2071103;28;20252;-54
2021/01/12 05:04:05;;;;;;;1.30;1.20;;;;;19.20;99351.00;;;;2061981;28;20303;-54